• Join FlightAware (Why Join?)
  • Login
  • US Flag 
08:29AM EDT


 

Airport Tracker/Info


-or-


 

Live Flight TrackerFlight Track Log ✈ JUS327 ✈ 11-Apr-2013 ✈ KYIP - KLIT

Flight Track Log - Related Links

Times and Time Zones

All times are in EDT time to prevent confusion due to time zone crossing. See the JUS327 flight status page for this flight to view local times or setup timezone preferences in your user account.

Time Position Orientation Groundspeed Altitude Reporting Facility
EDT Latitude Longitude Course Direction KTS MPH feet Rate Location/Type
06:14AM 42.2456 -83.5172 347° North 149 171 1,700  Level Cleveland Center
06:14AM 42.2889 -83.5306 347° North 243 280 2,900 960 Climbing Cleveland Center
06:16AM 42.3283 -83.6167 302° West 246 283 3,700 1,200 Climbing Cleveland Center
06:16AM 42.3631 -83.6519 323° Northwest 274 315 5,100 2,700 Climbing Cleveland Center
06:17AM 42.4050 -83.7186 310° West 262 302 8,400 2,880 Climbing Cleveland Center
06:18AM 42.4169 -83.8150 280° West 242 278 10,900 1,980 Climbing Cleveland Center
06:19AM 42.4219 -83.9250 274° West 261 300 12,400 1,020 Climbing Cleveland Center
06:20AM 42.4186 -84.0400 268° West 296 341 13,000 300 Climbing Cleveland Center
06:21AM 42.4256 -84.1558 275° West 306 352 13,100 1,260 Climbing Cleveland Center
06:22AM 42.4281 -84.2742 272° West 313 360 15,600 2,160 Climbing Cleveland Center
06:23AM 42.4408 -84.3903 279° West 313 360 17,500 1,560 Climbing Cleveland Center
06:24AM 42.4450 -84.5144 273° West 319 367 18,800 1,320 Climbing Cleveland Center
06:26AM 42.4500 -84.7042 272° West 355 409 20,700 1,260 Climbing Chicago Center
06:27AM 42.4547 -84.8425 273° West 366 421 21,900 1,200 Climbing Chicago Center
06:28AM 42.4569 -84.9853 271° West 376 433 23,200 1,200 Climbing Chicago Center
06:29AM 42.4625 -85.1297 273° West 384 442 24,400 1,200 Climbing Chicago Center
06:30AM 42.4644 -85.2761 271° West 387 445 25,600 1,200 Climbing Chicago Center
06:31AM 42.4394 -85.4106 256° West 389 448 26,900 1,380 Climbing Chicago Center
06:32AM 42.3594 -85.4958 218° Southwest 368 423 28,500 1,380 Climbing Chicago Center
06:33AM 42.2789 -85.5825 219° Southwest 371 427 29,700 1,260 Climbing Chicago Center
06:34AM 42.1958 -85.6644 216° Southwest 371 427 31,100 1,440 Climbing Chicago Center
06:35AM 42.1136 -85.7444 216° Southwest 366 421 32,700 1,320 Climbing Chicago Center
06:36AM 42.0356 -85.8219 216° Southwest 353 406 33,800 600 Climbing Chicago Center
06:37AM 41.9478 -85.9036 215° Southwest 358 412 34,000 60 Climbing Chicago Center
06:38AM 41.8636 -85.9822 215° Southwest 370 426 34,000  Level Chicago Center
06:39AM 41.7817 -86.0644 217° Southwest 370 426 34,000  Level Chicago Center
06:40AM 41.6992 -86.1369 213° Southwest 360 414 34,000  Level Chicago Center
06:41AM 41.6192 -86.2139 216° Southwest 357 411 34,000  Level Chicago Center
06:42AM 41.5394 -86.2939 217° Southwest 358 412 34,000  Level Chicago Center
06:43AM 41.4600 -86.3747 217° Southwest 360 414 34,000  Level Chicago Center
06:44AM 41.3789 -86.4514 215° Southwest 359 413 34,000  Level Chicago Center
06:45AM 41.2953 -86.5258 214° Southwest 360 414 34,000  Level Chicago Center
06:46AM 41.2144 -86.6008 215° Southwest 358 412 34,000  Level Chicago Center
06:47AM 41.1344 -86.6778 216° Southwest 356 410 34,000  Level Chicago Center
06:48AM 41.0394 -86.7692 216° Southwest 356 410 34,000  Level Chicago Center
06:49AM 40.9569 -86.8436 214° Southwest 357 411 34,000 -240 Level Chicago Center
06:50AM 40.8753 -86.9175 214° Southwest 357 411 33,600 -540 Descending Chicago Center
06:51AM 40.7917 -86.9939 215° Southwest 363 418 33,000 -660 Descending Chicago Center
06:52AM 40.7086 -87.0736 216° Southwest 368 423 32,300 -540 Descending Chicago Center
06:53AM 40.6253 -87.1503 215° Southwest 367 422 32,000 -180 Descending Chicago Center
06:54AM 40.5458 -87.2258 216° Southwest 359 413 32,000  Level Chicago Center
06:55AM 40.4647 -87.2994 215° Southwest 356 410 32,000  Level Chicago Center
06:56AM 40.3825 -87.3706 213° Southwest 355 409 32,000  Level Chicago Center
06:57AM 40.3000 -87.4433 214° Southwest 357 411 32,000  Level Chicago Center
06:58AM 40.2175 -87.5192 215° Southwest 361 415 32,000  Level Chicago Center
06:59AM 40.1347 -87.5931 214° Southwest 362 417 32,000  Level Chicago Center
07:00AM 40.0761 -87.6444 214° Southwest 358 412 32,000  Level Indianapolis Center
07:01AM 39.9919 -87.7197 214° Southwest 364 419 32,000  Level Indianapolis Center
07:02AM 39.9097 -87.7947 215° Southwest 361 415 32,000  Level Indianapolis Center
07:03AM 39.8092 -87.8833 214° Southwest 362 417 32,000  Level Indianapolis Center
07:04AM 39.7250 -87.9569 214° Southwest 363 418 32,000  Level Indianapolis Center
07:05AM 39.6397 -88.0292 213° Southwest 364 419 32,000  Level Indianapolis Center
07:05AM 39.6058 -88.0556 211° Southwest 363 418 32,000 -120 Level Kansas City Center
07:06AM 39.5214 -88.1314 215° Southwest 364 419 31,900 -60 Descending Kansas City Center
07:07AM 39.4403 -88.2156 219° Southwest 369 425 31,900  Level Kansas City Center
07:08AM 39.3533 -88.2900 214° Southwest 373 429 31,900  Level Kansas City Center
07:09AM 39.2664 -88.3597 212° Southwest 370 426 31,900  Level Kansas City Center
07:10AM 39.1825 -88.4336 214° Southwest 367 422 32,000  Climbing Kansas City Center
07:11AM 39.1003 -88.5100 216° Southwest 364 419 31,900 -60 Descending Kansas City Center
07:12AM 39.0153 -88.5828 214° Southwest 365 420 31,900  Level Kansas City Center
07:13AM 38.9358 -88.6511 214° Southwest 364 419 31,900  Level Kansas City Center
07:14AM 38.8497 -88.7222 213° Southwest 366 421 31,900  Level Kansas City Center
07:15AM 38.7647 -88.7931 213° Southwest 365 420 31,900  Level Kansas City Center
07:16AM 38.6808 -88.8656 214° Southwest 364 419 31,900  Level Kansas City Center
07:17AM 38.5908 -88.9414 213° Southwest 365 420 31,900  Level Kansas City Center
07:18AM 38.5003 -89.0178 213° Southwest 362 417 31,900  Level Kansas City Center
07:19AM 38.4158 -89.0886 213° Southwest 362 417 32,000  Climbing Kansas City Center
07:20AM 38.3317 -89.1597 214° Southwest 366 421 31,900 -60 Descending Kansas City Center
07:21AM 38.2489 -89.2306 214° Southwest 359 413 31,900  Level Kansas City Center
07:22AM 38.1669 -89.2994 213° Southwest 355 409 31,900  Level Kansas City Center
07:23AM 38.0850 -89.3675 213° Southwest 352 405 31,900  Level Kansas City Center
07:24AM 38.0028 -89.4342 213° Southwest 351 404 31,900  Level Kansas City Center
07:25AM 37.9214 -89.5022 213° Southwest 351 404 31,900  Level Kansas City Center
07:26AM 37.8389 -89.5703 213° Southwest 353 406 31,900  Level Kansas City Center
07:27AM 37.7681 -89.6258 212° Southwest 347 399 31,900  Level Kansas City Center
07:28AM 37.6683 -89.7069 213° Southwest 352 405 31,900  Level Kansas City Center
07:29AM 37.5853 -89.7756 213° Southwest 355 409 31,900  Level Kansas City Center
07:30AM 37.5125 -89.8364 214° Southwest 356 410 31,900  Level Kansas City Center
07:32AM 37.4286 -89.9044 213° Southwest 358 412 31,900  Level Kansas City Center
07:32AM 37.3564 -89.9656 214° Southwest 358 412 31,900  Level Memphis Center
07:33AM 37.2753 -90.0364 215° Southwest 363 418 31,900  Level Memphis Center
07:34AM 37.1919 -90.1042 213° Southwest 363 418 31,900  Level Memphis Center
07:35AM 37.1089 -90.1722 213° Southwest 363 418 31,900  Level Memphis Center
07:36AM 37.0236 -90.2375 211° Southwest 363 418 31,900  Level Memphis Center
07:37AM 36.9403 -90.3050 213° Southwest 368 423 31,900  Level Memphis Center
07:38AM 36.8569 -90.3697 212° Southwest 368 423 31,900  Level Memphis Center
07:39AM 36.7736 -90.4347 212° Southwest 368 423 31,900  Level Memphis Center
07:40AM 36.6797 -90.5094 213° Southwest 368 423 31,900  Level Memphis Center
07:41AM 36.5961 -90.5742 212° Southwest 368 423 31,900  Level Memphis Center
07:42AM 36.5147 -90.6383 212° Southwest 368 423 31,900 -120 Level Memphis Center
07:43AM 36.4311 -90.7050 213° Southwest 368 423 31,700 -600 Descending Memphis Center
07:44AM 36.3497 -90.7692 212° Southwest 363 418 30,800 -960 Descending Memphis Center
07:45AM 36.2683 -90.8331 212° Southwest 363 418 29,800 -1,020 Descending Memphis Center
07:46AM 36.1867 -90.8994 213° Southwest 363 418 28,800 -1,080 Descending Memphis Center
07:47AM 36.1050 -90.9633 212° Southwest 363 418 27,700 -1,080 Descending Memphis Center
07:48AM 36.0256 -91.0269 213° Southwest 358 412 26,700 -1,080 Descending Memphis Center
07:49AM 35.9481 -91.1006 218° Southwest 353 406 25,600 -1,320 Descending Memphis Center
07:50AM 35.8725 -91.1767 219° Southwest 353 406 24,100 -1,620 Descending Memphis Center
07:51AM 35.7969 -91.2478 217° Southwest 353 406 22,400 -1,740 Descending Memphis Center
07:52AM 35.7211 -91.3158 216° Southwest 347 399 20,700 -1,620 Descending Memphis Center
07:53AM 35.6581 -91.3994 227° Southwest 336 387 19,200 -1,620 Descending Memphis Center
07:54AM 35.6008 -91.4856 231° Southwest 329 379 17,500 -1,620 Descending Memphis Center
07:55AM 35.5481 -91.5767 235° Southwest 334 384 16,000 -1,560 Descending Memphis Center
07:56AM 35.4908 -91.6575 229° Southwest 329 379 14,400 -1,680 Descending Memphis Center
07:57AM 35.4675 -91.6878 227° Southwest 315 362 13,700 -1,620 Descending Memphis Center
07:57AM 35.4233 -91.7228 213° Southwest 316 364 12,800 -1,680 Descending Memphis Center
07:58AM 35.3878 -91.7475 210° Southwest 323 372 12,000 -1,620 Descending Memphis Center
07:58AM 35.3478 -91.7800 214° Southwest 315 362 11,200 -1,500 Descending Memphis Center
07:59AM 35.3142 -91.8025 209° Southwest 329 379 10,500 -1,200 Descending Memphis Center
07:59AM 35.2697 -91.8372 213° Southwest 331 381 10,000 -480 Descending Memphis Center
08:00AM 35.2467 -91.8547 212° Southwest 324 373 10,100 60 Climbing Memphis Center
08:00AM 35.2003 -91.8919 213° Southwest 319 367 10,100 -300 Level Memphis Center
08:01AM 35.1772 -91.9092 211° Southwest 265 305 9,800 -1,200 Descending Memphis Center
08:01AM 35.1392 -91.9392 213° Southwest 292 336 8,900 -1,380 Descending Memphis Center
08:02AM 35.1161 -91.9564 211° Southwest 247 284 8,400 -1,440 Descending Memphis Center
08:02AM 35.0822 -91.9861 216° Southwest 273 314 7,500 -1,320 Descending Memphis Center
08:03AM 35.0611 -92.0061 218° Southwest 251 289 7,100 -1,200 Descending Memphis Center
08:03AM 35.0253 -92.0383 216° Southwest 263 303 6,300 -1,200 Descending Memphis Center
08:04AM 35.0042 -92.0608 221° Southwest 257 296 5,900 -900 Descending Memphis Center
08:04AM 34.9744 -92.0981 226° Southwest 263 303 5,400 -840 Descending Memphis Center
08:05AM 34.9553 -92.1181 221° Southwest 247 284 5,100 -420 Descending Memphis Center
08:05AM 34.9236 -92.1503 220° Southwest 257 296 5,000 -120 Descending Memphis Center
08:06AM 34.9044 -92.1753 227° Southwest 237 273 5,000  Level Memphis Center
08:06AM 34.8728 -92.2075 220° Southwest 257 296 5,000  Level Memphis Center
08:07AM 34.8536 -92.2272 220° Southwest 256 295 5,000  Level Memphis Center
08:07AM 34.8175 -92.2644 220° Southwest 257 296 5,000  Level Memphis Center
08:08AM 34.7964 -92.2892 224° Southwest 257 296 5,000 -300 Level Memphis Center
08:08AM 34.7689 -92.3189 222° Southwest 257 296 4,700 -1,200 Descending Memphis Center
08:09AM 34.7433 -92.3436 218° Southwest 239 275 3,800 -1,620 Descending Memphis Center
08:09AM 34.7178 -92.3708 221° Southwest 252 290 3,100 -840 Descending Memphis Center
08:10AM 34.6967 -92.3931 221° Southwest 230 265 3,000 -120 Descending Memphis Center
08:10AM 34.6753 -92.4203 226° Southwest 233 268 3,000 -120 Level Memphis Center
08:11AM 34.6503 -92.4272 193° South 196 226 2,900 -420 Descending Memphis Center
08:11AM 34.6278 -92.4014 137° Southeast 163 188 2,600 -540 Descending Memphis Center
08:12AM 34.6281 -92.3736 89° East 201 231 2,400 -540 Descending Memphis Center
08:13AM 34.6561 -92.3239 56° Northeast 171 197 1,900 -600 Descending Memphis Center
08:14AM 34.6858 -92.2842 48° Northeast 143 165 1,300 -720 Descending Memphis Center
08:15AM 34.7114 -92.2544 44° Northeast 131 151 500 -840 Descending Memphis Center